createdAt,value
2023-04-27T00:00:00.163Z,13.15
2023-04-27T00:02:26.689Z,7.82
2023-04-27T00:04:51.814Z,10.63
2023-04-27T00:07:16.868Z,8.95
2023-04-27T00:09:41.510Z,12.25
2023-04-27T00:12:06.674Z,9.50
2023-04-27T00:14:31.373Z,12.02
2023-04-27T00:16:56.332Z,9.27
2023-04-27T00:19:22.924Z,12.95
2023-04-27T00:21:47.859Z,16.23
2023-04-27T00:24:12.477Z,13.13
2023-04-27T00:26:37.120Z,10.48
2023-04-27T00:29:04.123Z,11.10
2023-04-27T00:31:29.062Z,10.77
2023-04-27T00:33:54.372Z,10.27
2023-04-27T00:36:20.530Z,14.52
2023-04-27T00:38:46.423Z,11.27
2023-04-27T00:41:11.212Z,8.57
2023-04-27T00:43:44.080Z,9.95
2023-04-27T00:46:10.742Z,9.88
2023-04-27T00:48:35.448Z,11.40
2023-04-27T00:51:00.648Z,13.43
2023-04-27T00:53:27.426Z,13.32
2023-04-27T00:55:52.101Z,12.93
2023-04-27T00:58:16.875Z,14.70
2023-04-27T01:00:41.969Z,15.80
2023-04-27T01:03:07.217Z,13.23
2023-04-27T01:05:32.987Z,9.13
2023-04-27T01:07:57.819Z,9.70
2023-04-27T01:10:25.831Z,6.60
2023-04-27T01:12:50.579Z,11.85
2023-04-27T01:15:15.859Z,10.73
2023-04-27T01:17:41.026Z,16.90
2023-04-27T01:20:07.803Z,8.73
2023-04-27T01:22:34.383Z,10.50
2023-04-27T01:25:01.292Z,9.63
2023-04-27T01:27:30.174Z,8.00
2023-04-27T01:29:54.705Z,12.85
2023-04-27T01:32:19.453Z,11.82
2023-04-27T01:34:44.055Z,11.52
2023-04-27T01:37:08.859Z,13.88
2023-04-27T01:39:33.517Z,11.35
2023-04-27T01:42:00.159Z,9.68
2023-04-27T01:44:25.275Z,13.32
2023-04-27T01:46:49.956Z,12.10
2023-04-27T01:49:14.810Z,14.23
2023-04-27T01:51:39.752Z,9.75
2023-04-27T01:54:05.594Z,9.60
2023-04-27T01:56:31.297Z,8.98
2023-04-27T01:58:57.389Z,13.02
2023-04-27T02:01:23.103Z,10.93
2023-04-27T02:03:47.925Z,13.18
2023-04-27T02:06:13.084Z,13.65
2023-04-27T02:08:38.021Z,10.02
2023-04-27T02:11:02.594Z,12.00
2023-04-27T02:13:27.365Z,11.73
2023-04-27T02:15:53.941Z,9.75
2023-04-27T02:18:20.277Z,14.18
2023-04-27T02:20:45.052Z,8.85
2023-04-27T02:23:09.756Z,9.20
2023-04-27T02:25:37.962Z,10.82
2023-04-27T02:28:02.754Z,13.07
2023-04-27T02:30:29.362Z,9.10
2023-04-27T02:32:58.908Z,13.73
2023-04-27T02:35:23.621Z,11.25
2023-04-27T02:37:48.726Z,15.95
2023-04-27T02:40:14.028Z,11.65
2023-04-27T02:42:39.464Z,9.50
2023-04-27T02:45:05.894Z,10.15
2023-04-27T02:47:30.887Z,10.35
2023-04-27T02:49:56.786Z,14.95
2023-04-27T02:52:22.002Z,10.48
2023-04-27T02:54:46.640Z,15.27
2023-04-27T02:57:11.525Z,15.60
2023-04-27T02:59:38.879Z,14.98
2023-04-27T03:02:03.493Z,9.27
2023-04-27T03:04:28.378Z,8.95
2023-04-27T03:06:54.560Z,13.15
2023-04-27T03:09:19.080Z,15.32
2023-04-27T03:11:43.692Z,10.60
2023-04-27T03:14:08.364Z,8.75
2023-04-27T03:16:33.622Z,12.23
2023-04-27T03:18:58.699Z,11.10
2023-04-27T03:21:23.312Z,10.95
2023-04-27T03:23:49.808Z,10.43
2023-04-27T03:26:15.541Z,12.25
2023-04-27T03:28:40.373Z,8.98
2023-04-27T03:31:07.445Z,10.43
2023-04-27T03:33:32.124Z,11.13
2023-04-27T03:35:57.460Z,11.85
2023-04-27T03:38:22.161Z,8.63
2023-04-27T03:40:48.168Z,12.52
2023-04-27T03:43:12.980Z,10.57
2023-04-27T03:45:38.571Z,11.20
2023-04-27T03:48:03.528Z,15.35
2023-04-27T03:50:30.065Z,11.73
2023-04-27T03:52:55.053Z,10.30
2023-04-27T03:55:20.337Z,11.98
2023-04-27T03:57:46.824Z,8.68
2023-04-27T04:00:13.103Z,13.68
2023-04-27T04:02:38.281Z,14.50
2023-04-27T04:05:03.257Z,13.55
2023-04-27T04:07:28.261Z,9.07
2023-04-27T04:09:57.037Z,12.10
2023-04-27T04:12:21.745Z,14.73
2023-04-27T04:14:50.277Z,17.42
2023-04-27T04:17:17.011Z,11.85
2023-04-27T04:19:42.014Z,14.30
2023-04-27T04:22:06.757Z,17.30
2023-04-27T04:24:31.390Z,14.05
2023-04-27T04:26:56.087Z,17.13
2023-04-27T04:29:21.930Z,19.08
2023-04-27T04:31:48.420Z,17.15
2023-04-27T04:34:13.060Z,19.38
2023-04-27T04:36:38.341Z,22.10
2023-04-27T04:39:03.517Z,22.35
2023-04-27T04:41:28.283Z,15.35
2023-04-27T04:43:52.900Z,20.38
2023-04-27T04:46:17.585Z,19.25
2023-04-27T04:48:43.611Z,17.02
2023-04-27T04:51:09.527Z,24.60
2023-04-27T04:53:34.054Z,20.10
2023-04-27T04:55:58.733Z,28.67
2023-04-27T04:58:24.207Z,19.40
2023-04-27T05:00:48.865Z,19.42
2023-04-27T05:03:13.745Z,26.00
2023-04-27T05:05:39.960Z,16.65
2023-04-27T05:08:04.705Z,25.20
2023-04-27T05:10:29.399Z,19.20
2023-04-27T05:12:53.949Z,18.98
2023-04-27T05:15:18.866Z,17.83
2023-04-27T05:17:43.872Z,19.98
2023-04-27T05:20:10.007Z,21.05
2023-04-27T05:22:36.740Z,16.42
2023-04-27T05:25:03.621Z,17.50
2023-04-27T05:27:30.207Z,16.98
2023-04-27T05:29:54.964Z,16.17
2023-04-27T05:32:19.628Z,16.67
2023-04-27T05:34:46.687Z,17.55
2023-04-27T05:37:13.436Z,19.02
2023-04-27T05:39:40.872Z,21.80
2023-04-27T05:42:06.055Z,23.27
2023-04-27T05:44:31.214Z,26.00
2023-04-27T05:46:56.537Z,21.65
2023-04-27T05:49:21.969Z,15.98
2023-04-27T05:51:46.884Z,18.00
2023-04-27T05:54:12.904Z,16.00
2023-04-27T05:56:39.531Z,17.73
2023-04-27T05:59:04.705Z,15.40
2023-04-27T06:01:29.481Z,22.77
2023-04-27T06:03:54.482Z,20.60
2023-04-27T06:06:19.108Z,17.67
2023-04-27T06:08:44.439Z,23.60
2023-04-27T06:11:09.118Z,21.67
2023-04-27T06:13:35.378Z,16.85
2023-04-27T06:16:00.053Z,20.48
2023-04-27T06:18:25.133Z,19.05
2023-04-27T06:20:49.801Z,17.83
2023-04-27T06:23:14.586Z,14.82
2023-04-27T06:25:40.439Z,17.67
2023-04-27T06:28:07.748Z,21.80
2023-04-27T06:30:34.046Z,19.77
2023-04-27T06:32:59.047Z,15.05
2023-04-27T06:35:47.818Z,14.68
2023-04-27T06:38:28.951Z,14.80
2023-04-27T06:41:03.168Z,17.63
2023-04-27T06:43:32.904Z,18.88
2023-04-27T06:45:59.040Z,18.05
2023-04-27T06:48:23.776Z,11.23
2023-04-27T06:50:48.671Z,19.33
2023-04-27T06:53:13.409Z,11.18
2023-04-27T06:55:38.326Z,13.52
2023-04-27T06:58:04.538Z,15.90
2023-04-27T07:00:29.129Z,18.65
2023-04-27T07:02:55.419Z,15.52
2023-04-27T07:05:20.635Z,14.00
2023-04-27T07:07:47.984Z,14.60
2023-04-27T07:10:13.219Z,21.83
2023-04-27T07:12:38.056Z,13.52
2023-04-27T07:15:04.470Z,13.77
2023-04-27T07:17:30.587Z,16.42
2023-04-27T07:19:56.685Z,16.92
2023-04-27T07:22:21.627Z,13.88
2023-04-27T07:24:46.175Z,17.45
2023-04-27T07:27:10.810Z,17.00
2023-04-27T07:29:38.014Z,13.57
2023-04-27T07:32:02.901Z,19.27
2023-04-27T07:34:30.782Z,15.77
2023-04-27T07:37:03.644Z,16.55
2023-04-27T07:39:28.450Z,12.15
2023-04-27T07:41:56.685Z,16.27
2023-04-27T07:44:25.952Z,11.32
2023-04-27T07:46:50.960Z,14.10
2023-04-27T07:49:15.667Z,13.30
2023-04-27T07:51:49.434Z,13.70
2023-04-27T07:54:15.576Z,18.50
2023-04-27T07:56:43.433Z,16.60
2023-04-27T07:59:08.303Z,13.57
2023-04-27T08:01:33.420Z,11.00
2023-04-27T08:03:58.323Z,16.08
2023-04-27T08:06:24.930Z,13.27
2023-04-27T08:08:50.593Z,11.70
2023-04-27T08:11:19.072Z,20.45
2023-04-27T08:13:43.705Z,16.83
2023-04-27T08:16:08.492Z,13.80
2023-04-27T08:18:33.237Z,11.98
2023-04-27T08:20:58.245Z,13.60
2023-04-27T08:23:25.546Z,13.18
2023-04-27T08:25:50.227Z,10.18
2023-04-27T08:28:16.649Z,14.98
2023-04-27T08:30:42.801Z,13.43
2023-04-27T08:33:07.799Z,13.68
2023-04-27T08:35:35.806Z,12.98
2023-04-27T08:38:00.649Z,15.30
2023-04-27T08:40:25.569Z,10.88
2023-04-27T08:42:58.545Z,22.38
2023-04-27T08:45:25.602Z,16.80
2023-04-27T08:47:50.501Z,12.35
2023-04-27T08:50:15.379Z,10.48
2023-04-27T08:52:40.113Z,16.42
2023-04-27T08:55:08.713Z,11.25
2023-04-27T08:57:36.119Z,17.08
2023-04-27T09:00:01.402Z,14.68
2023-04-27T09:04:58.088Z,12.95
2023-04-27T09:07:50.287Z,13.73
2023-04-27T09:10:15.749Z,20.38
2023-04-27T09:12:40.910Z,13.45
2023-04-27T09:15:09.718Z,11.48
2023-04-27T09:17:39.008Z,18.10
2023-04-27T09:20:13.507Z,14.30
2023-04-27T09:22:46.332Z,11.70
2023-04-27T09:25:23.845Z,14.52
2023-04-27T09:27:49.705Z,18.35
2023-04-27T09:30:15.588Z,15.55
2023-04-27T09:32:41.838Z,16.48
2023-04-27T09:35:17.206Z,9.55
2023-04-27T09:37:45.070Z,13.85
2023-04-27T09:40:13.212Z,16.42
2023-04-27T09:42:40.395Z,13.02
2023-04-27T09:45:05.547Z,8.95
2023-04-27T09:47:30.842Z,12.75
2023-04-27T09:50:00.259Z,18.70
2023-04-27T09:52:26.380Z,19.35
2023-04-27T09:54:51.399Z,13.85
2023-04-27T09:57:26.451Z,17.10
2023-04-27T10:00:07.761Z,10.07
2023-04-27T10:02:53.337Z,15.85
2023-04-27T10:05:36.132Z,13.88
2023-04-27T10:08:06.242Z,9.43
2023-04-27T10:10:31.308Z,13.05
2023-04-27T10:12:59.566Z,12.40
2023-04-27T10:15:30.194Z,9.65
2023-04-27T10:17:58.862Z,10.40
2023-04-27T10:20:33.501Z,7.78
2023-04-27T10:22:58.693Z,8.27
2023-04-27T10:25:25.113Z,10.13
2023-04-27T10:27:56.375Z,9.85
2023-04-27T10:30:22.795Z,10.40
2023-04-27T10:32:56.192Z,13.20
2023-04-27T10:35:26.368Z,15.65
2023-04-27T10:40:36.800Z,12.50
2023-04-27T10:45:36.105Z,8.85
2023-04-27T10:48:03.236Z,7.25
2023-04-27T10:50:31.570Z,9.90
2023-04-27T10:52:56.629Z,10.75
2023-04-27T10:55:23.177Z,9.13
2023-04-27T10:57:51.335Z,8.88
2023-04-27T11:00:18.997Z,10.98
2023-04-27T11:02:43.614Z,11.75
2023-04-27T11:05:19.212Z,13.35
2023-04-27T11:07:44.104Z,13.25
2023-04-27T11:10:10.634Z,9.43
2023-04-27T11:12:35.414Z,11.13
2023-04-27T11:15:06.533Z,8.98
2023-04-27T11:17:31.430Z,15.30
2023-04-27T11:19:56.598Z,9.55
2023-04-27T11:22:22.144Z,12.82
2023-04-27T11:24:51.281Z,10.18
2023-04-27T11:27:16.509Z,6.38
2023-04-27T11:29:42.645Z,9.98
2023-04-27T11:32:09.078Z,8.52
2023-04-27T11:34:37.528Z,10.85
2023-04-27T11:39:36.983Z,9.30
2023-04-27T11:42:19.520Z,8.93
2023-04-27T11:44:44.691Z,7.03
2023-04-27T11:47:18.905Z,10.75
2023-04-27T11:49:48.852Z,11.57
2023-04-27T11:52:15.673Z,10.57
2023-04-27T11:54:40.933Z,9.35
2023-04-27T11:57:09.386Z,5.35
2023-04-27T11:59:35.543Z,10.00
2023-04-27T12:02:02.214Z,8.35
2023-04-27T12:04:31.266Z,10.75
2023-04-27T12:06:57.598Z,10.93
2023-04-27T12:09:22.659Z,8.65
2023-04-27T12:11:47.562Z,6.50
2023-04-27T12:14:15.365Z,11.98
2023-04-27T12:16:43.941Z,9.73
2023-04-27T12:19:08.889Z,12.20
2023-04-27T12:21:35.603Z,6.47
2023-04-27T12:24:03.705Z,9.30
2023-04-27T12:26:30.064Z,8.57
2023-04-27T12:28:55.090Z,10.32
2023-04-27T12:31:36.086Z,7.57
2023-04-27T12:34:01.044Z,8.80
2023-04-27T12:36:29.701Z,12.88
2023-04-27T12:38:59.520Z,8.80
2023-04-27T12:41:27.713Z,10.25
2023-04-27T12:43:52.864Z,7.65
2023-04-27T12:46:19.759Z,9.80
2023-04-27T12:48:49.171Z,10.55
2023-04-27T12:51:14.995Z,8.18
2023-04-27T12:53:41.391Z,8.85
2023-04-27T12:56:08.442Z,5.88
2023-04-27T12:58:40.088Z,8.07
2023-04-27T13:01:07.900Z,13.20
2023-04-27T13:03:33.112Z,12.27
2023-04-27T13:05:58.015Z,7.68
2023-04-27T13:08:23.624Z,11.63
2023-04-27T13:10:50.343Z,8.82
2023-04-27T13:13:17.048Z,9.68
2023-04-27T13:15:42.021Z,6.85
2023-04-27T13:18:07.019Z,11.18
2023-04-27T13:20:34.955Z,7.03
2023-04-27T13:22:59.673Z,12.00
2023-04-27T13:25:24.843Z,5.47
2023-04-27T13:27:52.657Z,7.03
2023-04-27T13:30:21.644Z,7.30
2023-04-27T13:32:46.814Z,5.82
2023-04-27T13:35:14.427Z,6.72
2023-04-27T13:37:42.420Z,9.90
2023-04-27T13:40:11.013Z,6.88
2023-04-27T13:42:36.139Z,7.95
2023-04-27T13:45:01.102Z,9.25
2023-04-27T13:47:29.540Z,7.85
2023-04-27T13:49:57.753Z,9.70
2023-04-27T13:52:22.532Z,7.45
2023-04-27T13:54:47.866Z,6.22
2023-04-27T13:57:12.762Z,8.65
2023-04-27T13:59:37.956Z,10.48
2023-04-27T14:02:02.695Z,9.90
2023-04-27T14:04:30.731Z,7.60
2023-04-27T14:06:55.793Z,5.45
2023-04-27T14:09:20.832Z,7.28
2023-04-27T14:11:55.715Z,6.03
2023-04-27T14:14:22.424Z,5.35
2023-04-27T14:16:47.540Z,5.07
2023-04-27T14:19:15.684Z,3.22
2023-04-27T14:21:42.590Z,8.15
2023-04-27T14:24:09.941Z,5.15
2023-04-27T14:26:38.636Z,6.10
2023-04-27T14:29:03.709Z,6.40
2023-04-27T14:31:29.615Z,4.30
2023-04-27T14:33:55.519Z,5.05
2023-04-27T14:36:20.503Z,3.33
2023-04-27T14:38:47.556Z,7.05
2023-04-27T14:41:14.856Z,8.98
2023-04-27T14:43:44.830Z,7.40
2023-04-27T14:48:44.492Z,3.63
2023-04-27T14:51:09.258Z,3.90
2023-04-27T14:53:33.782Z,7.53
2023-04-27T14:56:00.063Z,5.40
2023-04-27T14:58:24.793Z,5.07
2023-04-27T15:00:49.458Z,10.18
2023-04-27T15:03:14.171Z,6.40
2023-04-27T15:05:39.081Z,4.85
2023-04-27T15:08:03.876Z,7.15
2023-04-27T15:10:28.762Z,3.53
2023-04-27T15:12:54.747Z,5.72
2023-04-27T15:15:19.542Z,7.05
2023-04-27T15:17:44.198Z,5.85
2023-04-27T15:20:10.906Z,7.90
2023-04-27T15:22:35.551Z,11.43
2023-04-27T15:25:00.669Z,4.07
2023-04-27T15:27:26.686Z,4.00
2023-04-27T15:29:54.838Z,7.32
2023-04-27T15:32:19.587Z,6.40
2023-04-27T15:34:45.558Z,8.25
2023-04-27T15:37:10.678Z,6.30
2023-04-27T15:39:35.418Z,8.23
2023-04-27T15:42:01.658Z,4.47
2023-04-27T15:44:26.434Z,4.93
2023-04-27T15:46:55.226Z,4.28
2023-04-27T15:49:19.856Z,6.18
2023-04-27T15:51:45.595Z,4.28
2023-04-27T15:54:10.437Z,6.68
2023-04-27T15:56:35.041Z,8.57
2023-04-27T15:59:04.031Z,9.20
2023-04-27T16:01:28.827Z,9.70
2023-04-27T16:03:55.027Z,7.05
2023-04-27T16:06:19.682Z,7.90
2023-04-27T16:08:44.273Z,13.98
2023-04-27T16:11:09.017Z,8.75
2023-04-27T16:13:34.306Z,9.73
2023-04-27T16:15:58.831Z,4.35
2023-04-27T16:18:23.659Z,16.52
2023-04-27T16:20:49.693Z,9.13
2023-04-27T16:23:14.452Z,5.93
2023-04-27T16:25:39.053Z,8.85
2023-04-27T16:28:03.702Z,6.82
2023-04-27T16:30:28.512Z,8.82
2023-04-27T16:32:53.896Z,8.07
2023-04-27T16:35:18.770Z,13.52
2023-04-27T16:37:44.938Z,9.85
2023-04-27T16:40:10.396Z,8.43
2023-04-27T16:42:35.201Z,8.98
2023-04-27T16:44:59.976Z,7.65
2023-04-27T16:47:24.926Z,9.25
2023-04-27T16:49:49.483Z,9.93
2023-04-27T16:52:14.113Z,10.35
2023-04-27T16:54:40.242Z,13.63
2023-04-27T16:57:05.490Z,10.00
2023-04-27T16:59:30.045Z,4.57
2023-04-27T17:01:54.933Z,13.00
2023-04-27T17:04:19.695Z,9.75
2023-04-27T17:06:47.093Z,9.63
2023-04-27T17:09:11.923Z,7.40
2023-04-27T17:11:38.469Z,12.95
2023-04-27T17:14:03.173Z,10.40
2023-04-27T17:16:28.378Z,11.93
2023-04-27T17:18:55.748Z,11.07
2023-04-27T17:21:22.779Z,11.23
2023-04-27T17:23:47.707Z,10.75
2023-04-27T17:26:12.417Z,22.90
2023-04-27T17:28:38.291Z,17.52
2023-04-27T17:31:03.596Z,14.27
2023-04-27T17:33:28.443Z,14.00
2023-04-27T17:35:55.296Z,13.50
2023-04-27T17:38:20.169Z,10.00
2023-04-27T17:40:45.726Z,20.98
2023-04-27T17:43:10.909Z,18.25
2023-04-27T17:45:37.582Z,8.27
2023-04-27T17:48:02.878Z,9.95
2023-04-27T17:50:28.204Z,13.27
2023-04-27T17:52:55.972Z,9.02
2023-04-27T17:55:20.621Z,10.25
2023-04-27T17:57:45.995Z,7.55
2023-04-27T18:00:12.195Z,9.38
2023-04-27T18:02:38.593Z,14.10
2023-04-27T18:05:03.823Z,11.48
2023-04-27T18:07:29.203Z,9.10
2023-04-27T18:09:54.145Z,10.13
2023-04-27T18:12:20.161Z,10.43
2023-04-27T18:14:44.635Z,10.38
2023-04-27T18:17:09.953Z,9.43
2023-04-27T18:19:36.210Z,11.13
2023-04-27T18:22:00.866Z,12.05
2023-04-27T18:24:25.616Z,9.88
2023-04-27T18:26:50.392Z,9.18
2023-04-27T18:29:26.920Z,11.95
2023-04-27T18:31:54.588Z,9.98
2023-04-27T18:34:19.257Z,11.38
2023-04-27T18:36:48.459Z,6.85
2023-04-27T18:39:17.135Z,7.47
2023-04-27T18:41:42.311Z,8.27
2023-04-27T18:44:07.420Z,8.73
2023-04-27T18:46:32.068Z,11.45
2023-04-27T18:48:56.782Z,8.57
2023-04-27T18:51:23.357Z,12.50
2023-04-27T18:53:53.449Z,15.43
2023-04-27T18:56:18.266Z,8.50
2023-04-27T18:58:42.847Z,12.23
2023-04-27T19:01:08.472Z,19.60
2023-04-27T19:03:33.597Z,11.57
2023-04-27T19:05:58.927Z,8.98
2023-04-27T19:08:23.775Z,11.07
2023-04-27T19:10:52.267Z,18.52
2023-04-27T19:13:16.871Z,18.73
2023-04-27T19:15:41.404Z,11.18
2023-04-27T19:18:10.814Z,8.48
2023-04-27T19:20:36.708Z,10.52
2023-04-27T19:23:01.849Z,12.30
2023-04-27T19:25:27.033Z,11.80
2023-04-27T19:27:53.494Z,12.40
2023-04-27T19:30:18.611Z,9.13
2023-04-27T19:32:43.699Z,6.10
2023-04-27T19:35:11.840Z,8.02
2023-04-27T19:37:37.605Z,4.90
2023-04-27T19:40:02.802Z,8.90
2023-04-27T19:42:30.640Z,13.45
2023-04-27T19:44:57.893Z,12.50
2023-04-27T19:47:25.006Z,7.50
2023-04-27T19:49:50.742Z,7.68
2023-04-27T19:52:15.703Z,12.40
2023-04-27T19:54:48.388Z,5.30
2023-04-27T19:57:12.960Z,7.65
2023-04-27T19:59:38.063Z,9.82
2023-04-27T20:02:04.517Z,9.55
2023-04-27T20:04:29.707Z,8.88
2023-04-27T20:06:56.300Z,7.43
2023-04-27T20:09:20.920Z,12.00
2023-04-27T20:11:46.582Z,10.25
2023-04-27T20:14:12.343Z,10.75
2023-04-27T20:16:37.395Z,7.28
2023-04-27T20:19:05.319Z,11.68
2023-04-27T20:21:30.411Z,11.30
2023-04-27T20:23:55.510Z,11.25
2023-04-27T20:26:20.050Z,14.43
2023-04-27T20:28:44.708Z,11.38
2023-04-27T20:31:09.612Z,14.68
2023-04-27T20:33:34.646Z,10.85
2023-04-27T20:36:14.058Z,10.68
2023-04-27T20:38:41.109Z,15.93
2023-04-27T20:41:05.859Z,11.88
2023-04-27T20:43:30.532Z,11.23
2023-04-27T20:45:55.613Z,11.73
2023-04-27T20:48:20.170Z,11.10
2023-04-27T20:50:44.657Z,9.68
2023-04-27T20:53:13.018Z,11.73
2023-04-27T20:55:37.494Z,12.52
2023-04-27T20:58:02.566Z,10.25
2023-04-27T21:00:34.417Z,12.82
2023-04-27T21:02:59.145Z,15.13
2023-04-27T21:05:23.741Z,11.60
2023-04-27T21:07:48.234Z,7.30
2023-04-27T21:10:15.239Z,9.25
2023-04-27T21:12:39.886Z,10.43
2023-04-27T21:15:04.720Z,12.82
2023-04-27T21:17:31.263Z,10.63
2023-04-27T21:19:56.953Z,8.57
2023-04-27T21:22:21.623Z,13.75
2023-04-27T21:24:46.067Z,9.85
2023-04-27T21:27:12.166Z,14.38
2023-04-27T21:29:36.997Z,13.20
2023-04-27T21:32:02.012Z,9.80
2023-04-27T21:34:26.706Z,16.75
2023-04-27T21:36:51.363Z,10.30
2023-04-27T21:39:15.869Z,10.80
2023-04-27T21:41:41.124Z,14.55
2023-04-27T21:44:07.200Z,9.88
2023-04-27T21:46:31.827Z,15.05
2023-04-27T21:48:56.733Z,13.48
2023-04-27T21:51:21.430Z,13.63
2023-04-27T21:53:45.866Z,14.80
2023-04-27T21:56:13.104Z,17.58
2023-04-27T21:58:37.809Z,12.38
2023-04-27T22:01:03.997Z,14.05
2023-04-27T22:03:29.751Z,11.20
2023-04-27T22:05:57.594Z,13.23
2023-04-27T22:08:22.304Z,16.88
2023-04-27T22:10:47.271Z,10.50
2023-04-27T22:15:39.454Z,12.40
2023-04-27T22:18:06.781Z,16.40
2023-04-27T22:20:31.406Z,12.75
2023-04-27T22:22:56.282Z,14.88
2023-04-27T22:25:21.999Z,12.27
2023-04-27T22:27:46.512Z,12.07
2023-04-27T22:30:12.288Z,10.32
2023-04-27T22:32:37.297Z,12.30
2023-04-27T22:35:04.460Z,7.57
2023-04-27T22:37:31.729Z,13.35
2023-04-27T22:39:58.907Z,18.02
2023-04-27T22:42:23.607Z,15.88
2023-04-27T22:44:48.014Z,11.90
2023-04-27T22:47:13.372Z,9.57
2023-04-27T22:49:38.414Z,15.93
2023-04-27T22:52:05.029Z,13.27
2023-04-27T22:54:29.732Z,11.35
2023-04-27T22:56:54.425Z,13.70
2023-04-27T22:59:22.771Z,14.05
2023-04-27T23:01:47.517Z,13.18
2023-04-27T23:04:12.226Z,14.40
2023-04-27T23:06:36.927Z,14.15
2023-04-27T23:09:03.261Z,15.05
2023-04-27T23:11:28.871Z,11.13
2023-04-27T23:13:54.659Z,12.63
2023-04-27T23:16:19.336Z,10.35
2023-04-27T23:18:44.126Z,10.85
2023-04-27T23:21:10.265Z,11.80
2023-04-27T23:23:35.016Z,15.23
2023-04-27T23:26:01.126Z,17.98
2023-04-27T23:28:26.004Z,15.68
2023-04-27T23:30:55.141Z,10.20
2023-04-27T23:33:19.693Z,11.52
2023-04-27T23:35:44.442Z,10.88
2023-04-27T23:38:08.994Z,17.83
2023-04-27T23:40:33.380Z,16.17
2023-04-27T23:42:59.261Z,12.25
2023-04-27T23:45:23.694Z,10.70
2023-04-27T23:47:48.218Z,13.05
2023-04-27T23:50:12.685Z,14.38
2023-04-27T23:52:37.323Z,11.65
2023-04-27T23:55:01.995Z,16.38
2023-04-27T23:57:30.426Z,15.52
2023-04-27T23:59:56.477Z,9.85
